Time;durP1;ratioP1;P1;durP2;ratioP2;P2;SDS_P1;SDS_P2;PMS_P1;PMS_P2;Temp;Humidity;BMP_temperature;BMP_pressure;BME280_temperature;BME280_humidity;BME280_pressure;Samples;Min_cycle;Max_cycle;Signal;HPM_P1;HPM_P2
2022/04/11 00:00:00;;;;;;;;;;;8.80;93.80;9.30;99476.00;;;;346218;28;83373;-90
2022/04/11 00:00:13;;;;;;;;;;;8.80;93.80;9.30;99466.00;;;;343754;28;95888;-90
2022/04/11 00:00:25;;;;;;;;;;;8.80;93.70;9.20;99471.00;;;;344754;28;83297;-89
2022/04/11 00:00:38;;;;;;;;;;;8.80;93.80;9.20;99478.00;;;;345275;28;97568;-89
2022/04/11 00:00:49;;;;;;;;;;;8.80;93.90;9.20;99476.00;;;;344717;28;83213;-89
2022/04/11 00:01:01;;;;;;;;;;;8.80;93.90;9.20;99473.00;;;;347323;27;95297;-89
2022/04/11 00:01:13;;;;;;;;;;;8.80;93.70;9.20;99478.00;;;;346029;28;82535;-90
2022/04/11 00:01:25;;;;;;;;;;;8.80;94.10;9.10;99473.00;;;;345350;28;96368;-89
2022/04/11 00:01:37;;;;;;;;;;;8.80;94.20;9.10;99472.00;;;;346096;28;83536;-89
2022/04/11 00:01:49;;;;;;;;;;;8.80;94.40;9.00;99468.00;;;;345233;28;96048;-90
2022/04/11 00:02:01;;;;;;;;;;;8.70;94.30;8.90;99475.00;;;;346117;28;83272;-89
2022/04/11 00:02:13;;;;;;;;;;;8.70;94.20;8.90;99479.00;;;;346770;28;96817;-90
2022/04/11 00:02:25;;;;;;;;;;;8.70;94.40;9.00;99478.00;;;;344689;28;82367;-89
2022/04/11 00:02:37;;;;;;;;;;;8.70;94.30;9.00;99478.00;;;;347909;27;98688;-89
2022/04/11 00:02:49;;;;;;;;;;;8.70;94.30;8.90;99469.00;;;;347438;28;83295;-89
2022/04/11 00:03:01;;;;;;;;;;;8.70;94.30;9.00;99476.00;;;;345399;28;93013;-89
2022/04/11 00:03:13;;;;;;;;;;;8.70;94.50;9.10;99480.00;;;;347425;28;83516;-89
2022/04/11 00:03:26;;;;;;;;;;;8.70;94.20;9.10;99476.00;;;;343987;28;95442;-89
2022/04/11 00:03:37;;;;;;;;;;;8.70;94.00;9.00;99483.00;;;;344812;28;82553;-89
2022/04/11 00:03:49;;;;;;;;;;;8.70;94.10;9.00;99477.00;;;;345295;28;96538;-90
2022/04/11 00:04:01;;;;;;;;;;;8.70;94.50;9.00;99478.00;;;;347072;27;83757;-89
2022/04/11 00:04:13;;;;;;;;;;;8.70;94.70;9.00;99478.00;;;;346741;28;93684;-89
2022/04/11 00:04:24;;;;;;;;;;;8.70;94.50;9.10;99480.00;;;;346140;28;82534;-89
2022/04/11 00:04:36;;;;;;;;;;;8.70;94.30;9.10;99481.00;;;;345244;28;97491;-89
2022/04/11 00:04:48;;;;;;;;;;;8.60;94.30;9.10;99471.00;;;;348972;27;82467;-89
2022/04/11 00:05:00;;;;;;;;;;;8.70;94.20;9.10;99483.00;;;;347926;27;94091;-89
2022/04/11 00:05:11;;;;;;;;;;;8.60;94.20;9.10;99479.00;;;;347441;28;83454;-89
2022/04/11 00:05:23;;;;;;;;;;;8.60;94.20;9.00;99485.00;;;;346662;28;96500;-89
2022/04/11 00:05:35;;;;;;;;;;;8.60;94.30;9.10;99479.00;;;;345920;28;83490;-89
2022/04/11 00:05:47;;;;;;;;;;;8.60;94.10;9.20;99476.00;;;;345238;28;96764;-89
2022/04/11 00:05:59;;;;;;;;;;;8.60;94.00;9.30;99477.00;;;;346138;28;83396;-89
2022/04/11 00:06:10;;;;;;;;;;;8.60;94.10;9.30;99474.00;;;;345235;28;95613;-88
2022/04/11 00:06:22;;;;;;;;;;;8.70;94.10;9.30;99480.00;;;;348744;27;83455;-89
2022/04/11 00:06:34;;;;;;;;;;;8.70;94.10;9.20;99478.00;;;;345341;28;95214;-89
2022/04/11 00:06:46;;;;;;;;;;;8.70;94.00;9.20;99478.00;;;;347374;28;82582;-89
2022/04/11 00:06:58;;;;;;;;;;;8.70;94.00;9.10;99478.00;;;;343498;28;97362;-89
2022/04/11 00:07:09;;;;;;;;;;;8.60;94.00;9.10;99477.00;;;;347045;28;83856;-89
2022/04/11 00:07:21;;;;;;;;;;;8.60;94.10;9.10;99472.00;;;;345352;28;96355;-89
2022/04/11 00:07:33;;;;;;;;;;;8.60;94.00;9.10;99471.00;;;;348696;27;83419;-89
2022/04/11 00:07:45;;;;;;;;;;;8.60;93.90;9.20;99476.00;;;;343889;28;95401;-89
2022/04/11 00:07:56;;;;;;;;;;;8.60;93.70;9.30;99470.00;;;;346160;28;82337;-89
2022/04/11 00:08:08;;;;;;;;;;;8.60;93.70;9.30;99479.00;;;;346719;28;96778;-89
2022/04/11 00:08:21;;;;;;;;;;;8.60;94.00;9.30;99470.00;;;;344763;28;82453;-89
2022/04/11 00:08:33;;;;;;;;;;;8.70;94.10;9.20;99483.00;;;;346773;28;95132;-89
2022/04/11 00:08:44;;;;;;;;;;;8.70;94.10;9.20;99474.00;;;;347460;28;83526;-89
2022/04/11 00:08:56;;;;;;;;;;;8.70;94.10;9.10;99479.00;;;;345430;28;93906;-89
2022/04/11 00:09:08;;;;;;;;;;;8.60;94.20;9.20;99476.00;;;;347093;27;82643;-89
2022/04/11 00:09:20;;;;;;;;;;;8.60;94.00;9.30;99484.00;;;;343933;28;95531;-89
2022/04/11 00:09:31;;;;;;;;;;;8.60;93.90;9.30;99479.00;;;;347571;28;82531;-89
2022/04/11 00:09:43;;;;;;;;;;;8.70;94.00;9.20;99476.00;;;;345255;28;97153;-90
2022/04/11 00:09:55;;;;;;;;;;;8.60;94.00;9.30;99479.00;;;;346020;28;83394;-89
2022/04/11 00:10:07;;;;;;;;;;;8.70;93.90;9.30;99482.00;;;;346693;28;96553;-89
2022/04/11 00:10:19;;;;;;;;;;;8.60;93.80;9.10;99477.00;;;;343352;28;83461;-89
2022/04/11 00:10:31;;;;;;;;;;;8.70;94.00;9.20;99483.00;;;;343284;28;96662;-89
2022/04/11 00:10:43;;;;;;;;;;;8.60;93.80;9.20;99477.00;;;;346046;28;83357;-89
2022/04/11 00:10:54;;;;;;;;;;;8.60;93.80;9.20;99482.00;;;;346742;28;95632;-89
2022/04/11 00:11:07;;;;;;;;;;;8.70;93.90;9.20;99482.00;;;;345996;28;83371;-89
2022/04/11 00:11:18;;;;;;;;;;;8.60;94.00;9.30;99478.00;;;;346760;28;95414;-89
2022/04/11 00:11:30;;;;;;;;;;;8.70;94.10;9.30;99484.00;;;;345781;28;83421;-89
2022/04/11 00:11:42;;;;;;;;;;;8.60;94.00;9.30;99478.00;;;;344040;28;93851;-89
2022/04/11 00:11:54;;;;;;;;;;;8.60;93.90;9.30;99487.00;;;;347424;28;83483;-89
2022/04/11 00:12:07;;;;;;;;;;;8.70;93.80;9.20;99486.00;;;;346744;28;95475;-89
2022/04/11 00:12:18;;;;;;;;;;;8.70;93.70;9.20;99480.00;;;;346167;28;83185;-88
2022/04/11 00:12:34;;;;;;;;;;;8.70;93.70;9.30;99488.00;;;;345077;28;97840;-89
2022/04/11 00:12:46;;;;;;;;;;;8.60;93.90;9.20;99483.00;;;;343362;28;83537;-90
2022/04/11 00:13:04;;;;;;;;;;;8.70;93.80;9.20;99499.00;;;;347006;27;95483;-89
2022/04/11 00:13:19;;;;;;;;;;;8.70;93.70;9.10;99491.00;;;;347524;27;83550;-89
2022/04/11 00:13:31;;;;;;;;;;;8.60;94.20;9.10;99486.00;;;;346731;28;96320;-89
2022/04/11 00:13:43;;;;;;;;;;;8.60;94.00;9.10;99477.00;;;;347382;28;83518;-89
2022/04/11 00:13:55;;;;;;;;;;;8.60;94.10;9.10;99485.00;;;;346630;28;96993;-89
2022/04/11 00:14:07;;;;;;;;;;;8.60;94.00;9.10;99479.00;;;;347514;28;83321;-89
2022/04/11 00:14:19;;;;;;;;;;;8.60;93.90;9.10;99482.00;;;;346720;28;97455;-89
2022/04/11 00:14:31;;;;;;;;;;;8.60;94.20;9.10;99481.00;;;;346086;28;83390;-90
2022/04/11 00:14:42;;;;;;;;;;;8.60;94.30;9.10;99487.00;;;;344927;28;95768;-89
2022/04/11 00:14:54;;;;;;;;;;;8.60;94.10;9.20;99478.00;;;;346250;28;82348;-90
2022/04/11 00:15:06;;;;;;;;;;;8.60;94.00;9.20;99484.00;;;;348071;27;95473;-89
2022/04/11 00:15:18;;;;;;;;;;;8.60;94.00;9.20;99481.00;;;;346072;28;82630;-89
2022/04/11 00:15:33;;;;;;;;;;;8.60;94.10;9.20;99479.00;;;;345418;28;95611;-90
2022/04/11 00:15:45;;;;;;;;;;;8.60;94.10;9.20;99483.00;;;;350121;27;83481;-89
2022/04/11 00:15:57;;;;;;;;;;;8.60;94.10;9.30;99476.00;;;;345437;28;94063;-89
2022/04/11 00:16:09;;;;;;;;;;;8.60;94.20;9.30;99483.00;;;;347686;27;83510;-90
2022/04/11 00:16:21;;;;;;;;;;;8.60;94.20;9.20;99484.00;;;;348046;27;96446;-90
2022/04/11 00:16:34;;;;;;;;;;;8.60;94.30;9.20;99476.00;;;;347239;28;83277;-89
2022/04/11 00:16:46;;;;;;;;;;;8.60;94.20;9.10;99485.00;;;;346517;28;94034;-90
2022/04/11 00:16:58;;;;;;;;;;;8.60;94.30;9.10;99486.00;;;;347050;28;83638;-90
2022/04/11 00:17:09;;;;;;;;;;;8.60;94.40;9.10;99485.00;;;;345259;28;94319;-89
2022/04/11 00:17:21;;;;;;;;;;;8.60;94.40;9.10;99479.00;;;;346043;28;83492;-89
2022/04/11 00:17:34;;;;;;;;;;;8.60;94.20;9.10;99483.00;;;;346806;28;95081;-89
2022/04/11 00:17:46;;;;;;;;;;;8.60;94.10;9.20;99486.00;;;;346105;28;82324;-89
2022/04/11 00:17:59;;;;;;;;;;;8.60;94.00;9.20;99482.00;;;;343903;28;96594;-89
2022/04/11 00:18:11;;;;;;;;;;;8.60;94.00;9.10;99484.00;;;;343446;28;83244;-89
2022/04/11 00:18:23;;;;;;;;;;;8.60;94.50;9.10;99488.00;;;;343867;28;95941;-89
2022/04/11 00:18:35;;;;;;;;;;;8.60;94.80;9.00;99485.00;;;;347528;27;82442;-90
2022/04/11 00:18:46;;;;;;;;;;;8.50;94.90;9.10;99478.00;;;;347880;27;97541;-89
2022/04/11 00:18:58;;;;;;;;;;;8.50;94.90;9.00;99493.00;;;;346058;28;83497;-89
2022/04/11 00:19:10;;;;;;;;;;;8.50;94.90;9.00;99484.00;;;;349039;27;93162;-89
2022/04/11 00:19:22;;;;;;;;;;;8.50;94.80;9.10;99482.00;;;;347493;28;83296;-89
2022/04/11 00:19:33;;;;;;;;;;;8.50;94.80;9.00;99487.00;;;;346497;28;97554;-90
2022/04/11 00:19:45;;;;;;;;;;;8.50;94.90;9.00;99485.00;;;;347506;28;83409;-88
2022/04/11 00:19:57;;;;;;;;;;;8.50;94.90;9.10;99482.00;;;;345280;28;96351;-89
2022/04/11 00:20:09;;;;;;;;;;;8.50;94.80;9.10;99484.00;;;;346093;28;82463;-89
2022/04/11 00:20:21;;;;;;;;;;;8.50;94.70;9.00;99484.00;;;;346732;28;94129;-89
2022/04/11 00:20:34;;;;;;;;;;;8.50;94.60;9.00;99487.00;;;;346161;28;82595;-89
2022/04/11 00:20:47;;;;;;;;;;;8.50;94.60;9.10;99476.00;;;;346653;28;95734;-89
2022/04/11 00:20:59;;;;;;;;;;;8.50;94.50;8.90;99493.00;;;;349032;27;83248;-89
2022/04/11 00:21:12;;;;;;;;;;;8.50;94.90;8.90;99483.00;;;;346613;28;97537;-89
2022/04/11 00:21:23;;;;;;;;;;;8.50;95.20;8.90;99490.00;;;;347467;28;83207;-89
2022/04/11 00:21:35;;;;;;;;;;;8.50;95.00;8.90;99486.00;;;;346766;28;94231;-89
2022/04/11 00:21:47;;;;;;;;;;;8.50;94.90;8.80;99486.00;;;;346135;28;83325;-89
2022/04/11 00:21:59;;;;;;;;;;;8.50;95.00;8.90;99484.00;;;;346292;28;96678;-89
2022/04/11 00:22:10;;;;;;;;;;;8.50;95.10;8.90;99485.00;;;;347226;28;83532;-89
2022/04/11 00:22:22;;;;;;;;;;;8.40;95.10;9.00;99489.00;;;;346578;28;96882;-89
2022/04/11 00:22:35;;;;;;;;;;;8.50;95.10;9.10;99486.00;;;;347381;27;83336;-89
2022/04/11 00:22:47;;;;;;;;;;;8.50;95.10;9.10;99485.00;;;;345250;28;97246;-90
2022/04/11 00:22:58;;;;;;;;;;;8.50;95.20;9.20;99495.00;;;;344775;28;83427;-89
2022/04/11 00:23:10;;;;;;;;;;;8.50;95.20;9.10;99483.00;;;;345283;28;94852;-90
2022/04/11 00:23:22;;;;;;;;;;;8.50;95.40;9.00;99494.00;;;;350239;27;83494;-89
2022/04/11 00:23:34;;;;;;;;;;;8.50;95.40;8.80;99491.00;;;;345406;28;96217;-89
2022/04/11 00:23:45;;;;;;;;;;;8.50;95.50;8.90;99494.00;;;;348860;27;82275;-89
2022/04/11 00:23:57;;;;;;;;;;;8.50;95.40;8.80;99492.00;;;;348073;27;95157;-89
2022/04/11 00:24:09;;;;;;;;;;;8.50;95.40;8.70;99489.00;;;;347461;28;83432;-89
2022/04/11 00:24:21;;;;;;;;;;;8.40;95.40;8.80;99484.00;;;;345372;28;95794;-89
2022/04/11 00:24:33;;;;;;;;;;;8.40;95.40;8.80;99487.00;;;;347458;28;83400;-89
2022/04/11 00:24:44;;;;;;;;;;;8.40;95.30;8.90;99488.00;;;;348087;27;96511;-89
2022/04/11 00:24:56;;;;;;;;;;;8.40;95.20;9.00;99493.00;;;;347234;28;83310;-89
2022/04/11 00:25:09;;;;;;;;;;;8.40;95.40;9.00;99485.00;;;;344696;28;97037;-89
2022/04/11 00:25:21;;;;;;;;;;;8.40;95.40;9.10;99488.00;;;;348639;27;84050;-89
2022/04/11 00:25:33;;;;;;;;;;;8.40;95.40;9.10;99495.00;;;;343909;28;95607;-89
2022/04/11 00:25:44;;;;;;;;;;;8.50;95.50;9.10;99491.00;;;;346068;28;83385;-89
2022/04/11 00:25:56;;;;;;;;;;;8.50;95.60;9.10;99499.00;;;;348172;27;96325;-89
2022/04/11 00:26:08;;;;;;;;;;;8.50;95.60;8.80;99493.00;;;;346123;28;83399;-89
2022/04/11 00:26:20;;;;;;;;;;;8.50;95.60;8.70;99486.00;;;;345326;28;96513;-89
2022/04/11 00:26:31;;;;;;;;;;;8.40;95.60;8.70;99490.00;;;;347504;28;83473;-89
2022/04/11 00:26:43;;;;;;;;;;;8.40;95.70;8.50;99490.00;;;;346635;28;96933;-89
2022/04/11 00:26:55;;;;;;;;;;;8.40;96.00;8.40;99486.00;;;;347527;28;83270;-89
2022/04/11 00:27:07;;;;;;;;;;;8.40;96.10;8.40;99485.00;;;;345340;28;95463;-89
2022/04/11 00:27:19;;;;;;;;;;;8.30;96.20;8.40;99491.00;;;;348973;27;83363;-89
2022/04/11 00:27:30;;;;;;;;;;;8.30;96.30;8.50;99496.00;;;;346712;28;96515;-89
2022/04/11 00:27:42;;;;;;;;;;;8.30;96.30;8.60;99499.00;;;;346047;28;83399;-89
2022/04/11 00:27:54;;;;;;;;;;;8.30;96.00;8.50;99488.00;;;;345063;28;97425;-89
2022/04/11 00:28:06;;;;;;;;;;;8.30;96.20;8.60;99498.00;;;;347150;28;83433;-89
2022/04/11 00:28:18;;;;;;;;;;;8.30;96.30;8.60;99495.00;;;;345220;28;97216;-90
2022/04/11 00:28:30;;;;;;;;;;;8.30;96.30;8.60;99492.00;;;;345918;28;83378;-89
2022/04/11 00:28:41;;;;;;;;;;;8.30;96.40;8.50;99486.00;;;;345029;28;97985;-90
2022/04/11 00:28:53;;;;;;;;;;;8.20;96.20;8.60;99491.00;;;;345995;28;83353;-89
2022/04/11 00:29:05;;;;;;;;;;;8.20;96.10;8.40;99488.00;;;;345222;28;96316;-89
2022/04/11 00:29:17;;;;;;;;;;;8.20;96.30;8.30;99492.00;;;;348883;27;83305;-89
2022/04/11 00:29:29;;;;;;;;;;;8.20;96.50;8.30;99490.00;;;;346777;28;94182;-89
2022/04/11 00:29:40;;;;;;;;;;;8.20;96.70;8.50;99490.00;;;;346178;28;82359;-89
2022/04/11 00:29:52;;;;;;;;;;;8.10;96.60;8.60;99498.00;;;;347996;27;96712;-90
2022/04/11 00:30:04;;;;;;;;;;;8.20;96.50;8.70;99494.00;;;;347484;28;82556;-89
2022/04/11 00:30:16;;;;;;;;;;;8.20;96.40;8.70;99488.00;;;;345266;28;95651;-89
2022/04/11 00:30:28;;;;;;;;;;;8.20;96.30;8.70;99483.00;;;;347436;27;83489;-89
2022/04/11 00:30:39;;;;;;;;;;;8.20;96.30;8.70;99491.00;;;;349509;27;95144;-89
2022/04/11 00:30:51;;;;;;;;;;;8.20;96.30;8.70;99496.00;;;;347476;28;83461;-89
2022/04/11 00:31:03;;;;;;;;;;;8.20;96.30;8.60;99490.00;;;;345936;28;96405;-89
2022/04/11 00:31:15;;;;;;;;;;;8.20;96.50;8.60;99491.00;;;;345429;28;83580;-89
2022/04/11 00:31:29;;;;;;;;;;;8.20;96.40;8.40;99485.00;;;;346647;28;97173;-89
2022/04/11 00:31:41;;;;;;;;;;;8.10;96.40;8.40;99496.00;;;;346915;28;83547;-89
2022/04/11 00:31:53;;;;;;;;;;;8.10;96.30;8.40;99491.00;;;;345241;28;96536;-89
2022/04/11 00:32:05;;;;;;;;;;;8.10;96.50;8.40;99490.00;;;;347314;28;83419;-89
2022/04/11 00:32:17;;;;;;;;;;;8.10;96.80;8.40;99493.00;;;;345316;28;95643;-89
2022/04/11 00:32:29;;;;;;;;;;;8.10;97.00;8.50;99494.00;;;;346057;28;83408;-89
2022/04/11 00:32:41;;;;;;;;;;;8.10;96.70;8.50;99491.00;;;;346693;28;96242;-89
2022/04/11 00:32:53;;;;;;;;;;;8.10;96.40;8.60;99494.00;;;;344621;28;83249;-90
2022/04/11 00:33:05;;;;;;;;;;;8.10;96.20;8.60;99484.00;;;;345261;28;96682;-89
2022/04/11 00:33:17;;;;;;;;;;;8.10;96.20;8.60;99494.00;;;;347451;28;83655;-89
2022/04/11 00:33:29;;;;;;;;;;;8.10;96.40;8.60;99489.00;;;;345403;28;95870;-89
2022/04/11 00:33:40;;;;;;;;;;;8.10;96.40;8.70;99491.00;;;;346102;28;83376;-89
2022/04/11 00:33:52;;;;;;;;;;;8.10;96.30;8.60;99492.00;;;;345294;28;96127;-89
2022/04/11 00:34:04;;;;;;;;;;;8.10;96.30;8.60;99493.00;;;;344782;28;83665;-89
2022/04/11 00:34:16;;;;;;;;;;;8.10;96.30;8.60;99492.00;;;;344786;28;95096;-89
2022/04/11 00:34:27;;;;;;;;;;;8.10;96.20;8.60;99497.00;;;;345931;28;83342;-89
2022/04/11 00:34:39;;;;;;;;;;;8.10;96.20;8.50;99493.00;;;;348083;27;97508;-89
2022/04/11 00:34:51;;;;;;;;;;;8.10;96.40;8.70;99487.00;;;;347422;28;83389;-89
2022/04/11 00:35:03;;;;;;;;;;;8.10;96.30;8.60;99490.00;;;;347314;27;95791;-89
2022/04/11 00:35:15;;;;;;;;;;;8.10;96.40;8.60;99490.00;;;;348878;27;82475;-89
2022/04/11 00:35:27;;;;;;;;;;;8.10;96.80;8.50;99493.00;;;;344987;28;96260;-89
2022/04/11 00:35:39;;;;;;;;;;;8.10;96.90;8.50;99486.00;;;;346198;28;83439;-89
2022/04/11 00:35:50;;;;;;;;;;;8.00;96.60;8.40;99486.00;;;;346643;28;96499;-89
2022/04/11 00:36:02;;;;;;;;;;;8.00;96.90;8.40;99496.00;;;;347529;28;82448;-89
2022/04/11 00:36:14;;;;;;;;;;;8.00;97.10;8.30;99480.00;;;;346652;28;96629;-89
2022/04/11 00:36:26;;;;;;;;;;;8.00;97.00;8.40;99492.00;;;;347444;28;83485;-89
2022/04/11 00:36:38;;;;;;;;;;;8.00;96.70;8.30;99492.00;;;;346719;28;95194;-89
2022/04/11 00:36:49;;;;;;;;;;;8.00;96.80;8.30;99492.00;;;;347614;28;82365;-89
2022/04/11 00:37:01;;;;;;;;;;;8.00;96.70;8.30;99494.00;;;;346112;28;95572;-90
2022/04/11 00:37:13;;;;;;;;;;;8.00;96.70;8.20;99491.00;;;;345954;28;83329;-90
2022/04/11 00:37:25;;;;;;;;;;;8.00;96.70;8.40;99490.00;;;;345263;28;95498;-89
2022/04/11 00:37:37;;;;;;;;;;;8.00;96.70;8.30;99498.00;;;;347459;28;83420;-89
2022/04/11 00:37:49;;;;;;;;;;;8.00;96.60;8.40;99494.00;;;;345262;28;96214;-89
2022/04/11 00:38:01;;;;;;;;;;;8.00;96.60;8.40;99494.00;;;;346624;28;83441;-90
2022/04/11 00:38:12;;;;;;;;;;;8.00;96.60;8.50;99492.00;;;;343934;28;96581;-89
2022/04/11 00:38:24;;;;;;;;;;;8.00;96.60;8.60;99496.00;;;;345986;28;82519;-89
2022/04/11 00:38:36;;;;;;;;;;;8.00;96.60;8.60;99488.00;;;;345200;28;97488;-89
2022/04/11 00:38:48;;;;;;;;;;;8.00;96.60;8.60;99490.00;;;;346074;28;83320;-89
2022/04/11 00:38:59;;;;;;;;;;;8.00;96.60;8.70;99490.00;;;;345496;28;94072;-89
2022/04/11 00:39:11;;;;;;;;;;;8.00;96.60;8.70;99495.00;;;;347357;28;83506;-89
2022/04/11 00:39:23;;;;;;;;;;;8.10;96.60;8.70;99494.00;;;;346333;28;96293;-89
2022/04/11 00:39:35;;;;;;;;;;;8.00;96.50;8.70;99492.00;;;;346006;28;83401;-89
2022/04/11 00:39:46;;;;;;;;;;;8.10;96.50;8.60;99496.00;;;;345303;28;96257;-89
2022/04/11 00:39:58;;;;;;;;;;;8.10;96.40;8.50;99487.00;;;;346878;28;83272;-89
2022/04/11 00:40:10;;;;;;;;;;;8.00;96.50;8.50;99490.00;;;;345312;28;97209;-89
2022/04/11 00:40:22;;;;;;;;;;;8.00;96.40;8.50;99491.00;;;;346059;28;82575;-89
2022/04/11 00:40:34;;;;;;;;;;;8.10;96.40;8.50;99489.00;;;;346530;28;94083;-90
2022/04/11 00:40:46;;;;;;;;;;;8.00;96.30;8.60;99495.00;;;;344699;28;83424;-90
2022/04/11 00:40:57;;;;;;;;;;;8.00;96.30;8.40;99490.00;;;;343996;28;94815;-89
2022/04/11 00:41:10;;;;;;;;;;;8.10;96.30;8.40;99486.00;;;;347390;27;83508;-89
2022/04/11 00:41:21;;;;;;;;;;;8.00;96.60;8.40;99496.00;;;;345349;28;95573;-89
2022/04/11 00:41:33;;;;;;;;;;;8.00;96.50;8.40;99490.00;;;;347479;28;83303;-90
2022/04/11 00:41:45;;;;;;;;;;;8.00;96.60;8.50;99496.00;;;;346605;28;97429;-89
2022/04/11 00:41:57;;;;;;;;;;;8.00;96.40;8.50;99487.00;;;;348945;27;82511;-90
2022/04/11 00:42:10;;;;;;;;;;;8.00;96.20;8.30;99494.00;;;;347576;27;96129;-89
2022/04/11 00:42:24;;;;;;;;;;;8.00;96.50;8.20;99488.00;;;;347437;28;83312;-89
2022/04/11 00:42:37;;;;;;;;;;;8.00;96.80;8.20;99493.00;;;;345261;28;95885;-89
2022/04/11 00:42:49;;;;;;;;;;;7.90;96.70;8.20;99485.00;;;;347496;28;82549;-89
2022/04/11 00:43:01;;;;;;;;;;;8.00;96.80;8.20;99497.00;;;;343232;28;95265;-89
2022/04/11 00:43:51;;;;;;;;;;;7.90;96.80;8.50;99495.00;;;;345907;28;83701;-89
2022/04/11 00:44:05;;;;;;;;;;;7.90;96.80;8.30;99489.00;;;;339655;28;96659;-89
2022/04/11 00:44:16;;;;;;;;;;;7.90;96.70;8.40;99489.00;;;;340515;28;83478;-89
2022/04/11 00:44:28;;;;;;;;;;;8.00;96.70;8.40;99484.00;;;;339625;28;97192;-89
2022/04/11 00:44:40;;;;;;;;;;;7.90;96.60;8.50;99488.00;;;;337906;28;83513;-89
2022/04/11 00:44:51;;;;;;;;;;;8.00;96.50;8.50;99487.00;;;;339958;28;93945;-89
2022/04/11 00:45:04;;;;;;;;;;;8.00;96.70;8.50;99491.00;;;;340591;28;83507;-88
2022/04/11 00:45:15;;;;;;;;;;;7.90;96.60;8.50;99490.00;;;;341013;28;96092;-89
2022/04/11 00:45:27;;;;;;;;;;;8.00;96.60;8.50;99489.00;;;;343361;28;83457;-89
2022/04/11 00:45:39;;;;;;;;;;;7.90;96.50;8.40;99481.00;;;;338358;28;97357;-89
2022/04/11 00:45:51;;;;;;;;;;;7.90;96.40;8.30;99487.00;;;;343102;28;82386;-89
2022/04/11 00:46:03;;;;;;;;;;;7.90;96.50;8.30;99482.00;;;;341897;28;96742;-89
2022/04/11 00:46:15;;;;;;;;;;;7.90;96.50;8.20;99476.00;;;;343211;28;82505;-89
2022/04/11 00:46:27;;;;;;;;;;;7.90;96.60;8.30;99492.00;;;;342373;28;95740;-89
2022/04/11 00:46:39;;;;;;;;;;;7.90;96.50;8.30;99489.00;;;;337958;28;83439;-89
2022/04/11 00:46:51;;;;;;;;;;;7.90;96.40;8.40;99480.00;;;;337221;28;96310;-89
2022/04/11 00:47:03;;;;;;;;;;;7.90;96.40;8.50;99486.00;;;;340427;28;83779;-89
2022/04/11 00:47:15;;;;;;;;;;;7.90;96.50;8.30;99487.00;;;;339820;28;97262;-90
2022/04/11 00:47:27;;;;;;;;;;;7.90;96.70;8.40;99490.00;;;;339226;28;82487;-88
2022/04/11 00:47:39;;;;;;;;;;;7.90;96.80;8.30;99487.00;;;;337269;28;96387;-89
2022/04/11 00:47:51;;;;;;;;;;;7.80;97.10;8.30;99490.00;;;;339175;28;83276;-89
2022/04/11 00:48:03;;;;;;;;;;;7.80;97.10;8.20;99489.00;;;;339897;28;96831;-89
2022/04/11 00:48:15;;;;;;;;;;;7.80;97.20;8.30;99482.00;;;;340321;28;83470;-89
2022/04/11 00:48:27;;;;;;;;;;;7.80;97.20;8.30;99488.00;;;;340929;28;97355;-89
2022/04/11 00:48:40;;;;;;;;;;;7.80;97.10;8.20;99493.00;;;;337970;28;82529;-89
2022/04/11 00:48:51;;;;;;;;;;;7.80;97.10;8.30;99491.00;;;;339884;28;95515;-89
2022/04/11 00:49:03;;;;;;;;;;;7.80;97.10;8.40;99488.00;;;;339908;28;83684;-89
2022/04/11 00:49:15;;;;;;;;;;;7.80;97.10;8.30;99488.00;;;;340958;28;97144;-89
2022/04/11 00:49:27;;;;;;;;;;;7.80;97.10;8.30;99489.00;;;;340673;28;82590;-89
2022/04/11 00:49:38;;;;;;;;;;;7.80;97.10;8.20;99492.00;;;;341216;28;95667;-89
2022/04/11 00:49:50;;;;;;;;;;;7.80;97.10;8.00;99493.00;;;;341851;28;83280;-89
2022/04/11 00:50:10;;;;;;;;;;;7.70;97.20;8.00;99492.00;;;;340399;28;95447;-89
2022/04/11 00:50:21;;;;;;;;;;;7.70;97.40;8.00;99492.00;;;;340477;28;83564;-89
2022/04/11 00:50:33;;;;;;;;;;;7.70;97.70;8.00;99489.00;;;;341131;28;95967;-89
2022/04/11 00:50:45;;;;;;;;;;;7.70;97.70;8.00;99489.00;;;;340580;28;83284;-89
2022/04/11 00:51:02;;;;;;;;;;;7.70;97.80;8.00;99491.00;;;;342671;28;94433;-89
2022/04/11 00:51:17;;;;;;;;;;;7.70;97.80;8.00;99488.00;;;;339118;28;82461;-89
2022/04/11 00:51:29;;;;;;;;;;;7.70;97.70;8.00;99488.00;;;;336865;28;98882;-89
2022/04/11 00:51:41;;;;;;;;;;;7.70;97.60;7.90;99492.00;;;;339193;28;82525;-89
2022/04/11 00:51:53;;;;;;;;;;;7.70;97.60;7.90;99483.00;;;;338491;28;96457;-89
2022/04/11 00:52:06;;;;;;;;;;;7.70;97.70;8.00;99485.00;;;;340231;28;83608;-89
2022/04/11 00:52:18;;;;;;;;;;;7.60;97.70;7.90;99483.00;;;;340945;28;97346;-89
2022/04/11 00:52:30;;;;;;;;;;;7.60;97.60;7.90;99491.00;;;;341743;28;83815;-89
2022/04/11 00:52:48;;;;;;;;;;;7.60;97.60;7.90;99479.00;;;;341201;28;95172;-89
2022/04/11 00:52:59;;;;;;;;;;;7.60;97.80;7.90;99484.00;;;;340545;28;83368;-89
2022/04/11 00:53:11;;;;;;;;;;;7.60;98.00;7.80;99495.00;;;;341081;28;96406;-89
2022/04/11 00:53:23;;;;;;;;;;;7.60;98.10;7.90;99481.00;;;;340595;28;83504;-89
2022/04/11 00:53:40;;;;;;;;;;;7.60;98.00;7.80;99493.00;;;;341131;28;95296;-89
2022/04/11 00:53:52;;;;;;;;;;;7.60;97.90;7.80;99484.00;;;;340604;28;82523;-89
2022/04/11 00:54:04;;;;;;;;;;;7.60;97.80;7.90;99479.00;;;;338534;28;94232;-89
2022/04/11 00:54:16;;;;;;;;;;;7.50;97.60;8.00;99483.00;;;;340671;28;83472;-89
2022/04/11 00:54:28;;;;;;;;;;;7.50;97.60;7.90;99479.00;;;;338236;28;96694;-89
2022/04/11 00:54:40;;;;;;;;;;;7.60;97.60;7.80;99480.00;;;;340309;28;83884;-89
2022/04/11 00:54:51;;;;;;;;;;;7.50;97.60;7.70;99489.00;;;;338531;28;93884;-89
2022/04/11 00:55:05;;;;;;;;;;;7.50;97.60;7.90;99480.00;;;;339913;28;83621;-89
2022/04/11 00:55:18;;;;;;;;;;;7.50;97.80;8.00;99482.00;;;;339630;28;94237;-89
2022/04/11 00:55:30;;;;;;;;;;;7.50;97.70;8.10;99483.00;;;;342007;28;82592;-90
2022/04/11 00:55:42;;;;;;;;;;;7.60;98.10;8.10;99482.00;;;;341046;28;97193;-89
2022/04/11 00:55:53;;;;;;;;;;;7.50;97.70;8.20;99485.00;;;;340643;28;83339;-89
2022/04/11 00:56:10;;;;;;;;;;;7.60;97.70;8.20;99489.00;;;;341333;28;96695;-89
2022/04/11 00:56:22;;;;;;;;;;;7.60;97.70;8.20;99491.00;;;;340481;28;83242;-89
2022/04/11 00:56:35;;;;;;;;;;;7.60;97.70;8.20;99488.00;;;;338452;28;96660;-89
2022/04/11 00:56:47;;;;;;;;;;;7.60;97.70;8.10;99495.00;;;;344552;28;83711;-89
2022/04/11 00:56:59;;;;;;;;;;;7.60;97.70;8.10;99487.00;;;;342497;28;95319;-89
2022/04/11 00:57:11;;;;;;;;;;;7.60;97.80;8.20;99490.00;;;;337954;28;83394;-89
2022/04/11 00:57:23;;;;;;;;;;;7.60;97.70;8.20;99482.00;;;;341076;28;96421;-89
2022/04/11 00:57:35;;;;;;;;;;;7.70;97.80;8.20;99486.00;;;;344679;28;82569;-89
2022/04/11 00:57:46;;;;;;;;;;;7.60;97.80;8.20;99485.00;;;;339684;28;97651;-89
2022/04/11 00:57:59;;;;;;;;;;;7.70;98.00;8.10;99481.00;;;;340238;28;82536;-89
2022/04/11 00:58:11;;;;;;;;;;;7.60;97.70;8.20;99480.00;;;;342260;28;95803;-89
2022/04/11 00:58:23;;;;;;;;;;;7.70;97.50;8.00;99482.00;;;;343069;28;83467;-89
2022/04/11 00:58:34;;;;;;;;;;;7.60;97.40;7.90;99482.00;;;;339609;28;94086;-89
2022/04/11 00:58:46;;;;;;;;;;;7.60;97.50;8.00;99485.00;;;;339162;28;82525;-89
2022/04/11 00:58:58;;;;;;;;;;;7.60;97.60;8.00;99478.00;;;;338264;28;95418;-89
2022/04/11 00:59:10;;;;;;;;;;;7.60;97.60;8.00;99477.00;;;;340466;28;83575;-89
2022/04/11 00:59:22;;;;;;;;;;;7.60;97.70;8.00;99483.00;;;;339820;28;93754;-89
2022/04/11 00:59:34;;;;;;;;;;;7.60;97.80;8.10;99485.00;;;;340603;28;83199;-89
2022/04/11 00:59:46;;;;;;;;;;;7.60;97.80;8.00;99485.00;;;;340976;28;98248;-89
2022/04/11 00:59:59;;;;;;;;;;;7.60;97.90;7.90;99484.00;;;;340589;28;83333;-89
2022/04/11 01:00:13;;;;;;;;;;;7.60;98.10;7.90;99483.00;;;;339824;28;96243;-89
2022/04/11 01:00:24;;;;;;;;;;;7.60;98.20;7.90;99476.00;;;;341709;28;82511;-89
2022/04/11 01:00:36;;;;;;;;;;;7.60;98.20;8.10;99481.00;;;;342202;28;95559;-89
2022/04/11 01:00:48;;;;;;;;;;;7.60;97.90;8.10;99483.00;;;;339228;28;82510;-89
2022/04/11 01:01:00;;;;;;;;;;;7.60;97.80;8.00;99487.00;;;;340285;28;96189;-89
2022/04/11 01:01:13;;;;;;;;;;;7.60;98.10;7.90;99478.00;;;;339888;28;83540;-89
2022/04/11 01:01:25;;;;;;;;;;;7.60;98.30;7.80;99478.00;;;;340961;28;94276;-89
2022/04/11 01:01:37;;;;;;;;;;;7.50;98.20;7.80;99478.00;;;;341869;28;83378;-89
2022/04/11 01:01:49;;;;;;;;;;;7.50;98.10;7.70;99478.00;;;;336986;28;97014;-89
2022/04/11 01:02:03;;;;;;;;;;;7.50;98.20;7.80;99479.00;;;;341830;28;83852;-89